Terminal Aerodrome Forecast
Issued by NWS

Home | Current Version | Previous Version | Text Only | Print | Product List | Glossary On
Versions: 1 2 3 4 5 6 7 8 9 10 11 12 13 14 15 16 17 18 19 20 21 22 23 24 25 26 27 28 29
132
FTUS43 KIND 131720
TAFLAF
TAF
KLAF 131720Z 1318/1418 07006KT P6SM SCT040 BKN200
     FM140100 VRB03KT P6SM SCT220
     FM141000 00000KT 6SM BR BKN220
     FM141200 VRB03KT P6SM BKN220=

USA.gov is the U.S. government's official web portal to all federal, state and local government web resources and services.